Time;durP1;ratioP1;P1;durP2;ratioP2;P2;SDS_P1;SDS_P2;PMS_P1;PMS_P2;Temp;Humidity;BMP_temperature;BMP_pressure;BME280_temperature;BME280_humidity;BME280_pressure;Samples;Min_cycle;Max_cycle;Signal;HPM_P1;HPM_P2
2022/08/24 00:01:46;;;;;;;13.47;7.30;;;;;;;19.11;100.00;99996.78;4196870;28;20416;-65
2022/08/24 00:04:14;;;;;;;15.07;6.40;;;;;;;19.12;100.00;99999.25;4198330;28;20246;-65
2022/08/24 00:06:43;;;;;;;14.10;7.40;;;;;;;19.12;100.00;100001.13;4201071;28;20291;-63
2022/08/24 00:09:09;;;;;;;13.80;6.67;;;;;;;19.07;100.00;100000.94;4189890;28;20411;-66
2022/08/24 00:11:36;;;;;;;13.47;7.50;;;;;;;19.09;100.00;99996.16;4193529;28;20833;-64
2022/08/24 00:14:03;;;;;;;15.77;7.70;;;;;;;19.10;100.00;100001.31;4201472;28;20421;-65
2022/08/24 00:16:29;;;;;;;12.83;7.40;;;;;;;19.03;100.00;100000.50;4191687;28;20244;-64
2022/08/24 00:18:59;;;;;;;12.93;7.63;;;;;;;18.97;100.00;99996.81;4195022;28;21597;-63
2022/08/24 00:21:26;;;;;;;19.10;7.23;;;;;;;18.97;100.00;99995.97;4191886;28;20309;-65
2022/08/24 00:23:53;;;;;;;15.70;8.37;;;;;;;19.02;100.00;100000.75;4197632;28;22739;-64
2022/08/24 00:26:19;;;;;;;12.70;7.53;;;;;;;18.93;100.00;99998.25;4198238;28;20302;-65
2022/08/24 00:28:55;;;;;;;15.70;7.60;;;;;;;18.95;100.00;100004.28;4196841;28;21066;-64
2022/08/24 00:31:22;;;;;;;12.17;7.80;;;;;;;18.94;100.00;99999.94;4197181;28;22829;-63
2022/08/24 00:33:49;;;;;;;16.40;7.87;;;;;;;18.96;100.00;99995.16;4204134;28;20267;-64
2022/08/24 00:36:16;;;;;;;12.10;7.10;;;;;;;18.99;100.00;100004.69;4224449;28;20235;-64
2022/08/24 00:38:43;;;;;;;10.97;7.20;;;;;;;18.95;100.00;100004.28;4201631;28;20236;-64
2022/08/24 00:41:09;;;;;;;13.07;7.03;;;;;;;18.96;100.00;100000.56;4204094;28;20554;-64
2022/08/24 00:43:36;;;;;;;13.27;6.93;;;;;;;19.01;100.00;99997.22;4206160;28;20402;-64
2022/08/24 00:46:17;;;;;;;12.17;6.53;;;;;;;18.97;100.00;100002.19;4205813;28;20233;-63
2022/08/24 00:48:46;;;;;;;18.63;7.63;;;;;;;18.93;100.00;99995.56;4193980;28;21281;-63
2022/08/24 00:51:23;;;;;;;13.60;7.67;;;;;;;18.88;100.00;100000.75;4199878;28;20309;-63
2022/08/24 00:53:58;;;;;;;13.67;6.80;;;;;;;18.88;100.00;99995.38;4209833;28;20232;-65
2022/08/24 00:56:28;;;;;;;15.90;6.93;;;;;;;18.85;100.00;99990.41;4189244;28;20233;-63
2022/08/24 00:59:03;;;;;;;15.40;7.23;;;;;;;18.81;100.00;100002.66;4192933;28;20297;-64
2022/08/24 01:01:30;;;;;;;13.90;7.50;;;;;;;18.77;100.00;99996.00;4200444;28;20241;-65
2022/08/24 01:03:58;;;;;;;16.67;8.00;;;;;;;18.67;100.00;99995.59;4208958;28;20232;-63
2022/08/24 01:06:25;;;;;;;15.50;7.50;;;;;;;18.69;100.00;99993.50;4205655;28;21723;-65
2022/08/24 01:08:52;;;;;;;11.13;6.97;;;;;;;18.70;100.00;99995.16;4199002;28;20281;-65
2022/08/24 01:11:23;;;;;;;13.97;7.13;;;;;;;18.66;100.00;99994.75;4200370;28;20240;-65
2022/08/24 01:13:51;;;;;;;17.80;7.07;;;;;;;18.64;100.00;99985.22;4198541;28;21441;-65
2022/08/24 01:18:48;;;;;;;12.67;7.50;;;;;;;18.66;100.00;99988.50;4201993;28;22276;-63
2022/08/24 01:19:25;;;;;;;11.67;7.33;;;;;;;18.65;100.00;99992.25;4186887;28;20315;-63
2022/08/24 01:22:14;;;;;;;20.07;7.87;;;;;;;18.71;100.00;99999.53;4213699;28;20406;-63
2022/08/24 01:24:40;;;;;;;17.70;7.67;;;;;;;18.62;100.00;100003.47;4198527;28;20577;-63
2022/08/24 01:27:09;;;;;;;15.07;7.87;;;;;;;18.55;100.00;100006.97;4195731;28;22097;-62
2022/08/24 01:29:36;;;;;;;17.07;8.97;;;;;;;18.51;100.00;100002.22;4204429;28;20849;-64
2022/08/24 01:32:03;;;;;;;15.80;7.87;;;;;;;18.52;100.00;99999.31;4198031;28;22428;-63
2022/08/24 01:34:30;;;;;;;13.93;7.73;;;;;;;18.56;100.00;99997.84;4222475;28;20285;-65
2022/08/24 01:36:59;;;;;;;17.80;8.17;;;;;;;18.52;100.00;99998.50;4195878;28;22543;-63
2022/08/24 01:39:29;;;;;;;15.93;7.80;;;;;;;18.54;100.00;100007.19;4218198;28;20248;-63
2022/08/24 01:41:57;;;;;;;13.97;7.60;;;;;;;18.54;100.00;100021.50;4194174;28;21701;-63
2022/08/24 01:44:25;;;;;;;12.37;7.20;;;;;;;18.54;100.00;100023.34;4191588;28;20264;-63
2022/08/24 01:46:54;;;;;;;14.90;7.70;;;;;;;18.53;100.00;100027.91;4181100;28;20545;-64
2022/08/24 01:49:27;;;;;;;13.73;7.07;;;;;;;18.54;100.00;100023.34;4208970;28;22420;-63
2022/08/24 01:51:54;;;;;;;12.50;7.23;;;;;;;18.53;100.00;100030.59;4204234;28;20232;-63
2022/08/24 01:54:22;;;;;;;11.70;7.53;;;;;;;18.48;100.00;100030.41;4209898;28;20351;-64
2022/08/24 01:56:48;;;;;;;14.90;8.17;;;;;;;18.46;100.00;100027.09;4194168;28;20241;-64
2022/08/24 01:59:15;;;;;;;13.57;7.17;;;;;;;18.43;100.00;100035.59;4197950;28;21755;-63
2022/08/24 02:01:46;;;;;;;13.33;7.90;;;;;;;18.43;100.00;100030.19;4197891;28;20554;-64
2022/08/24 02:04:13;;;;;;;16.73;7.97;;;;;;;18.35;100.00;100031.25;4190851;28;20267;-63
2022/08/24 02:06:43;;;;;;;15.13;8.50;;;;;;;18.27;100.00;100028.72;4197280;28;20237;-63
2022/08/24 02:09:11;;;;;;;12.70;7.20;;;;;;;18.23;100.00;100037.44;4197213;28;20584;-64
2022/08/24 02:11:38;;;;;;;11.60;8.30;;;;;;;18.24;100.00;100055.22;4204356;28;22041;-64
2022/08/24 02:14:05;;;;;;;14.40;8.57;;;;;;;18.28;100.00;100056.50;4205921;28;22140;-65
2022/08/24 02:16:32;;;;;;;19.23;8.03;;;;;;;18.21;100.00;100053.78;4199462;28;21061;-65
2022/08/24 02:18:59;;;;;;;21.60;8.67;;;;;;;18.04;100.00;100056.03;4196893;28;20899;-64
2022/08/24 02:21:25;;;;;;;19.70;8.00;;;;;;;17.97;100.00;100049.78;4199725;28;20233;-64
2022/08/24 02:23:52;;;;;;;16.57;8.40;;;;;;;18.05;100.00;100055.00;4197910;28;20278;-63
2022/08/24 02:26:19;;;;;;;19.70;8.10;;;;;;;18.02;100.00;100054.56;4200685;28;20244;-64
2022/08/24 02:28:45;;;;;;;24.43;10.07;;;;;;;18.06;100.00;100053.13;4209702;28;21097;-65
2022/08/24 02:31:13;;;;;;;16.33;8.80;;;;;;;18.07;100.00;100060.16;4209841;28;21243;-64
2022/08/24 02:33:40;;;;;;;23.53;10.20;;;;;;;17.97;100.00;100065.94;4216690;28;20278;-65
2022/08/24 02:36:08;;;;;;;17.63;9.60;;;;;;;18.02;100.00;100059.97;4195267;28;20236;-65
2022/08/24 02:38:52;;;;;;;14.07;7.77;;;;;;;18.03;100.00;100054.38;4201451;28;20255;-64
2022/08/24 02:41:20;;;;;;;19.27;9.60;;;;;;;17.95;100.00;100057.25;4209211;28;20307;-65
2022/08/24 02:43:46;;;;;;;14.93;9.10;;;;;;;17.98;100.00;100070.31;4217180;28;21204;-65
2022/08/24 02:46:17;;;;;;;15.03;9.17;;;;;;;17.92;100.00;100060.34;4192330;28;20299;-62
2022/08/24 02:48:44;;;;;;;18.53;9.43;;;;;;;17.92;100.00;100052.28;4200555;28;20295;-63
2022/08/24 02:51:21;;;;;;;19.50;9.87;;;;;;;17.90;100.00;100049.78;4196846;28;20237;-63
2022/08/24 02:53:47;;;;;;;18.80;8.57;;;;;;;17.90;100.00;100055.16;4193243;28;20599;-63
2022/08/24 02:56:16;;;;;;;19.23;10.40;;;;;;;17.88;100.00;100056.41;4196875;28;20237;-64
2022/08/24 02:58:44;;;;;;;17.37;8.80;;;;;;;17.92;100.00;100054.97;4203201;28;20724;-63
2022/08/24 03:01:11;;;;;;;20.87;9.87;;;;;;;17.86;100.00;100058.44;4195680;28;20243;-64
2022/08/24 03:03:43;;;;;;;19.70;10.73;;;;;;;17.77;100.00;100054.25;4195758;28;20291;-65
2022/08/24 03:06:09;;;;;;;20.00;10.30;;;;;;;17.69;100.00;100048.00;4195307;28;20306;-64
2022/08/24 03:08:36;;;;;;;22.63;11.87;;;;;;;17.71;100.00;100045.94;4197445;28;20236;-64
2022/08/24 03:11:04;;;;;;;18.07;10.67;;;;;;;17.75;100.00;100045.53;4196963;28;21732;-63
2022/08/24 03:13:30;;;;;;;17.23;10.83;;;;;;;17.70;100.00;100044.31;4194687;28;20287;-64
2022/08/24 03:15:58;;;;;;;22.73;11.13;;;;;;;17.68;100.00;100050.91;4196453;28;20527;-63
2022/08/24 03:18:25;;;;;;;22.60;11.33;;;;;;;17.68;100.00;100051.75;4194609;28;20245;-64
2022/08/24 03:20:53;;;;;;;18.43;10.40;;;;;;;17.77;100.00;100051.56;4197459;28;21806;-64
2022/08/24 03:23:20;;;;;;;18.03;9.50;;;;;;;17.82;100.00;100051.84;4191477;28;20479;-63
2022/08/24 03:25:47;;;;;;;22.73;11.03;;;;;;;17.83;100.00;100053.47;4201255;28;20235;-63
2022/08/24 03:28:13;;;;;;;21.37;10.87;;;;;;;17.83;100.00;100054.31;4208624;28;20240;-63
2022/08/24 03:30:42;;;;;;;18.00;10.43;;;;;;;17.87;100.00;100054.75;4193499;28;20230;-64
2022/08/24 03:33:14;;;;;;;16.90;9.87;;;;;;;17.95;100.00;100051.03;4220253;28;20236;-64
2022/08/24 03:35:41;;;;;;;18.40;10.70;;;;;;;17.93;100.00;100062.84;4196031;28;20231;-64
2022/08/24 03:38:08;;;;;;;19.13;10.30;;;;;;;17.96;100.00;100063.44;4203192;28;20313;-64
2022/08/24 03:40:35;;;;;;;21.37;11.03;;;;;;;17.87;100.00;100065.50;4185223;28;22756;-63
2022/08/24 03:43:01;;;;;;;18.93;11.03;;;;;;;17.82;100.00;100068.81;4202191;28;20233;-66
2022/08/24 03:45:28;;;;;;;18.07;10.40;;;;;;;17.83;100.00;100072.31;4189947;28;21044;-64
2022/08/24 03:47:55;;;;;;;21.20;11.07;;;;;;;17.88;100.00;100077.94;4191607;28;20245;-63
2022/08/24 03:50:23;;;;;;;17.90;10.93;;;;;;;17.93;100.00;100076.31;4192861;28;20252;-63
2022/08/24 03:52:50;;;;;;;18.27;9.70;;;;;;;17.93;100.00;100078.16;4200907;28;20280;-63
2022/08/24 03:55:18;;;;;;;19.73;11.10;;;;;;;17.96;100.00;100084.97;4194412;28;20291;-63
2022/08/24 03:57:45;;;;;;;22.13;11.07;;;;;;;18.07;100.00;100079.03;4208713;28;20232;-65
2022/08/24 04:00:12;;;;;;;17.77;9.73;;;;;;;18.15;100.00;100084.25;4209428;28;20229;-65
2022/08/24 04:02:39;;;;;;;15.57;9.87;;;;;;;18.19;100.00;100087.34;4212555;28;21039;-62
2022/08/24 04:05:06;;;;;;;17.40;9.77;;;;;;;18.16;100.00;100085.88;4206648;28;21778;-63
2022/08/24 04:07:33;;;;;;;18.03;10.23;;;;;;;18.24;100.00;100085.72;4223965;28;22127;-63
2022/08/24 04:09:59;;;;;;;21.63;10.77;;;;;;;18.19;100.00;100084.66;4204035;28;22032;-63
2022/08/24 04:12:26;;;;;;;19.93;9.87;;;;;;;18.26;100.00;100093.56;4219329;28;20250;-65
2022/08/24 04:14:57;;;;;;;18.47;9.60;;;;;;;18.22;100.00;100095.84;4215307;28;20236;-64
2022/08/24 04:17:24;;;;;;;17.27;9.37;;;;;;;18.28;100.00;100096.91;4226238;28;22373;-63
2022/08/24 04:19:57;;;;;;;17.00;9.33;;;;;;;18.33;100.00;100094.41;4245849;28;20878;-65
2022/08/24 04:22:26;;;;;;;17.57;9.63;;;;;;;18.44;100.00;100099.22;4298132;28;21099;-64
2022/08/24 04:24:53;;;;;;;16.63;9.10;;;;;;;18.46;100.00;100102.53;4302340;28;21270;-66
2022/08/24 04:27:20;;;;;;;14.77;9.13;;;;;;;18.53;100.00;100107.94;4247893;28;20798;-64
2022/08/24 04:29:47;;;;;;;18.87;10.03;;;;;;;18.51;100.00;100110.81;4289821;28;20268;-63
2022/08/24 04:32:14;;;;;;;19.17;10.47;;;;;;;18.43;100.00;100111.03;4234135;28;21591;-62
2022/08/24 04:34:42;;;;;;;17.57;9.23;;;;;;;18.61;100.00;100109.59;4250459;28;20232;-62
2022/08/24 04:37:10;;;;;;;14.93;8.77;;;;;;;18.70;100.00;100105.66;4202502;28;20233;-62
2022/08/24 04:39:37;;;;;;;18.03;9.77;;;;;;;18.76;100.00;100112.94;4211546;28;20228;-65
2022/08/24 04:42:05;;;;;;;16.17;9.10;;;;;;;18.82;100.00;100116.69;4197231;28;23964;-64
2022/08/24 04:44:34;;;;;;;19.63;9.93;;;;;;;18.82;100.00;100119.38;4201788;28;20332;-65
2022/08/24 04:47:01;;;;;;;20.03;10.53;;;;;;;18.80;100.00;100119.63;4204770;28;20241;-63
2022/08/24 04:49:27;;;;;;;17.43;9.80;;;;;;;18.65;100.00;100118.94;4214325;28;20233;-64
2022/08/24 04:51:54;;;;;;;18.27;10.20;;;;;;;18.65;100.00;100125.16;4188416;28;20244;-64
2022/08/24 04:54:22;;;;;;;17.13;9.43;;;;;;;18.74;100.00;100131.19;4188488;28;20255;-63
2022/08/24 04:56:48;;;;;;;20.13;9.57;;;;;;;18.80;100.00;100132.25;4213202;28;20235;-64
2022/08/24 04:59:15;;;;;;;17.97;8.80;;;;;;;18.96;100.00;100135.38;4213992;28;22138;-66
2022/08/24 05:01:43;;;;;;;17.93;10.13;;;;;;;19.04;100.00;100141.59;4211981;28;25158;-64
2022/08/24 05:04:10;;;;;;;17.27;8.90;;;;;;;19.08;100.00;100142.81;4203446;28;22030;-63
2022/08/24 05:06:36;;;;;;;29.63;11.30;;;;;;;19.10;100.00;100144.28;4218288;28;22415;-66
2022/08/24 05:09:04;;;;;;;14.73;9.07;;;;;;;19.19;100.00;100150.31;4202580;28;20291;-63
2022/08/24 05:11:31;;;;;;;14.60;8.73;;;;;;;19.30;100.00;100146.16;4212720;28;23508;-64
2022/08/24 05:13:58;;;;;;;22.83;9.70;;;;;;;19.18;100.00;100145.94;4210231;28;21154;-63
2022/08/24 05:16:25;;;;;;;17.67;8.40;;;;;;;19.31;100.00;100127.03;4213444;28;20229;-65
2022/08/24 05:18:55;;;;;;;19.03;8.67;;;;;;;19.49;100.00;100131.78;4200839;28;20237;-64
2022/08/24 05:21:23;;;;;;;16.00;9.10;;;;;;;19.64;100.00;100125.31;4190941;28;22348;-64
2022/08/24 05:23:50;;;;;;;18.97;8.57;;;;;;;19.79;100.00;100129.47;4189845;28;20382;-63
2022/08/24 05:26:23;;;;;;;22.97;8.47;;;;;;;19.95;100.00;100130.03;4195035;28;20804;-63
2022/08/24 05:28:55;;;;;;;19.60;8.87;;;;;;;20.05;100.00;100126.88;4193786;28;20234;-63
2022/08/24 05:31:25;;;;;;;23.57;8.87;;;;;;;20.02;100.00;100128.13;4199494;28;20243;-64
2022/08/24 05:33:52;;;;;;;24.47;9.00;;;;;;;20.14;100.00;100136.38;4194374;28;23000;-64
2022/08/24 05:36:27;;;;;;;19.40;8.60;;;;;;;20.31;99.01;100131.31;4208330;28;22809;-62
2022/08/24 05:38:57;;;;;;;18.80;7.93;;;;;;;20.35;98.05;100133.38;4190718;28;20526;-64
2022/08/24 05:41:23;;;;;;;23.50;8.30;;;;;;;20.33;98.11;100131.94;4197430;28;23487;-64
2022/08/24 05:43:51;;;;;;;24.63;7.77;;;;;;;20.44;97.91;100128.53;4190208;28;21696;-63
2022/08/24 05:46:18;;;;;;;19.43;7.43;;;;;;;20.62;97.74;100127.81;4204113;28;20233;-65
2022/08/24 05:48:47;;;;;;;17.73;6.77;;;;;;;20.86;97.15;100132.44;4203006;28;20250;-65
2022/08/24 05:51:19;;;;;;;24.47;8.90;;;;;;;20.96;95.42;100131.94;4199743;28;21460;-63
2022/08/24 05:53:46;;;;;;;20.47;7.57;;;;;;;20.90;94.29;100134.69;4184644;28;20307;-65
2022/08/24 05:56:15;;;;;;;19.73;8.03;;;;;;;21.01;93.42;100132.09;4185865;28;20249;-64
2022/08/24 05:58:42;;;;;;;16.27;8.20;;;;;;;20.93;93.44;100121.56;4195190;28;20325;-64
2022/08/24 06:01:12;;;;;;;15.03;7.33;;;;;;;21.11;93.47;100120.78;4186550;28;23489;-65
2022/08/24 06:03:39;;;;;;;19.27;7.70;;;;;;;21.17;92.59;100117.19;4195376;28;20690;-65
2022/08/24 06:06:07;;;;;;;16.17;7.13;;;;;;;21.31;92.11;100120.59;4189811;28;20236;-64
2022/08/24 06:08:35;;;;;;;19.10;7.53;;;;;;;21.43;91.34;100118.00;4194543;28;20458;-66
2022/08/24 06:11:07;;;;;;;27.27;7.70;;;;;;;21.42;90.96;100125.31;4195211;28;20672;-66
2022/08/24 06:13:35;;;;;;;19.77;7.20;;;;;;;21.55;90.87;100127.03;4197398;28;20228;-65
2022/08/24 06:16:04;;;;;;;18.50;7.30;;;;;;;21.70;90.25;100129.38;4191432;28;20793;-64
2022/08/24 06:18:48;;;;;;;35.60;8.60;;;;;;;21.88;89.39;100115.00;4203914;28;20309;-65
2022/08/24 06:21:17;;;;;;;32.17;8.57;;;;;;;22.10;88.48;100118.03;4201977;28;20248;-68
2022/08/24 06:23:46;;;;;;;34.33;7.97;;;;;;;22.19;86.66;100124.81;4198272;28;21502;-66
2022/08/24 06:29:19;;;;;;;30.17;8.10;;;;;;;22.44;85.37;100130.13;4210133;28;20631;-63
2022/08/24 06:31:47;;;;;;;30.20;7.63;;;;;;;22.61;85.00;100124.84;4216947;28;21550;-66
2022/08/24 06:34:21;;;;;;;35.57;7.27;;;;;;;22.80;84.31;100136.47;4214202;28;20240;-78
2022/08/24 06:36:48;;;;;;;35.87;7.50;;;;;;;23.10;83.42;100131.00;4212904;28;20319;-75
2022/08/24 06:39:14;;;;;;;35.17;7.67;;;;;;;23.36;80.63;100137.00;4259765;28;20240;-74
2022/08/24 06:41:42;;;;;;;32.23;8.17;;;;;;;23.52;78.83;100132.75;4217084;28;20232;-72
2022/08/24 06:44:09;;;;;;;23.67;6.40;;;;;;;23.85;78.34;100140.28;4258725;28;25384;-74
2022/08/24 06:46:36;;;;;;;29.13;7.90;;;;;;;24.17;76.75;100140.69;4211915;28;20304;-64
2022/08/24 06:49:03;;;;;;;28.00;6.73;;;;;;;24.12;77.45;100142.47;4196327;28;20225;-64
2022/08/24 06:51:31;;;;;;;35.43;7.90;;;;;;;24.49;74.59;100151.13;4229140;28;20927;-74
2022/08/24 06:53:58;;;;;;;25.53;6.17;;;;;;;24.50;73.11;100163.63;4212735;28;25682;-71
2022/08/24 06:56:25;;;;;;;33.63;6.63;;;;;;;24.64;74.41;100161.44;4224411;28;25556;-73
2022/08/24 06:58:51;;;;;;;30.63;6.90;;;;;;;24.85;72.19;100168.88;4222848;28;22221;-69
2022/08/24 07:01:25;;;;;;;26.77;8.90;;;;;;;25.59;67.70;100178.81;4250830;28;20383;-75
2022/08/24 07:03:52;;;;;;;31.67;7.53;;;;;;;26.56;64.58;100183.88;4224948;28;21099;-71
2022/08/24 07:06:20;;;;;;;38.37;7.33;;;;;;;27.26;61.50;100196.53;4274596;28;20238;-74
2022/08/24 07:08:48;;;;;;;28.70;6.13;;;;;;;28.55;55.98;100203.53;4237573;28;20244;-74
2022/08/24 07:11:16;;;;;;;25.70;6.37;;;;;;;28.43;55.61;100201.03;4245241;28;21600;-75
2022/08/24 07:13:46;;;;;;;30.37;6.80;;;;;;;28.04;56.10;100193.22;4224084;28;22379;-74
2022/08/24 07:16:17;;;;;;;26.17;6.43;;;;;;;27.18;58.89;100191.50;4248745;28;20512;-74
2022/08/24 07:18:44;;;;;;;29.57;6.60;;;;;;;27.33;60.30;100205.34;4224014;28;20313;-73
2022/08/24 07:21:18;;;;;;;22.20;5.17;;;;;;;27.90;57.22;100205.72;4244899;28;20638;-70
2022/08/24 07:23:47;;;;;;;31.63;8.57;;;;;;;27.85;57.20;100211.16;4228855;28;21063;-73
2022/08/24 07:26:20;;;;;;;26.73;8.37;;;;;;;27.76;57.77;100217.09;4200799;28;20237;-73
2022/08/24 07:28:52;;;;;;;26.87;6.43;;;;;;;28.37;55.51;100219.31;4222415;28;20258;-72
2022/08/24 07:31:19;;;;;;;30.67;5.83;;;;;;;28.96;52.96;100226.34;4259690;28;20243;-75
2022/08/24 07:33:46;;;;;;;22.33;6.37;;;;;;;28.93;52.95;100228.81;4204773;28;20402;-74
2022/08/24 07:36:14;;;;;;;31.90;6.73;;;;;;;28.96;52.35;100231.84;4221897;28;20253;-72
2022/08/24 07:38:51;;;;;;;24.80;6.10;;;;;;;29.23;51.82;100236.25;4236292;28;20432;-74
2022/08/24 07:41:22;;;;;;;32.27;6.60;;;;;;;28.85;53.46;100240.31;4218564;28;21848;-72
2022/08/24 07:44:11;;;;;;;29.47;6.70;;;;;;;28.25;56.06;100229.69;4232232;28;20252;-74
2022/08/24 07:46:39;;;;;;;29.37;6.27;;;;;;;28.14;55.91;100231.56;4210965;28;22196;-53
2022/08/24 07:49:07;;;;;;;32.57;8.43;;;;;;;28.39;54.56;100238.22;4286487;28;20294;-45
2022/08/24 07:51:53;;;;;;;25.57;5.43;;;;;;;29.16;53.20;100241.19;4258072;28;20239;-51
2022/08/24 07:54:20;;;;;;;30.53;5.23;;;;;;;30.19;49.94;100247.34;4199594;28;20227;-72
2022/08/24 07:56:49;;;;;;;31.17;6.20;;;;;;;30.43;47.25;100247.56;4278045;28;23059;-76
2022/08/24 07:59:16;;;;;;;39.70;6.53;;;;;;;29.77;49.86;100235.66;4228444;28;20349;-75
2022/08/24 08:01:43;;;;;;;30.73;6.50;;;;;;;28.35;55.83;100231.63;4216994;28;20319;-72
2022/08/24 08:04:10;;;;;;;31.47;6.03;;;;;;;28.18;57.60;100223.63;4245667;28;20771;-75
2022/08/24 08:06:37;;;;;;;19.58;5.68;;;;;;;28.11;58.22;100220.31;4197531;28;20264;-74
2022/08/24 08:09:05;;;;;;;28.53;6.63;;;;;;;27.91;58.05;100221.88;4221103;28;20231;-75
2022/08/24 08:11:31;;;;;;;26.60;6.37;;;;;;;28.00;58.35;100222.19;4222842;28;23825;-73
2022/08/24 08:13:58;;;;;;;25.47;5.70;;;;;;;27.58;60.01;100217.53;4272119;28;20228;-73
2022/08/24 08:16:26;;;;;;;38.37;6.50;;;;;;;27.63;59.01;100225.78;4252168;28;20576;-77
2022/08/24 08:18:53;;;;;;;38.33;6.10;;;;;;;27.53;60.78;100220.22;4221242;28;21113;-76
2022/08/24 08:24:29;;;;;;;47.10;6.80;;;;;;;27.23;61.98;100215.34;4225313;28;21288;-75
2022/08/24 08:26:58;;;;;;;29.33;6.80;;;;;;;27.45;61.24;100218.81;4227975;28;20505;-77
2022/08/24 08:29:25;;;;;;;37.23;6.53;;;;;;;27.50;59.89;100223.50;4230247;28;20240;-75
2022/08/24 08:31:52;;;;;;;36.33;7.07;;;;;;;27.12;61.67;100222.63;4212200;28;20353;-77
2022/08/24 08:34:19;;;;;;;37.63;7.00;;;;;;;27.25;60.63;100233.13;4218963;28;20613;-75
2022/08/24 08:36:46;;;;;;;37.40;6.03;;;;;;;26.55;65.49;100220.41;4224666;28;20357;-74
2022/08/24 08:39:15;;;;;;;27.93;5.97;;;;;;;26.71;64.82;100230.41;4214785;28;22635;-76
2022/08/24 08:42:04;;;;;;;34.63;6.77;;;;;;;26.68;65.60;100236.41;4242395;28;20235;-75
2022/08/24 08:44:59;;;;;;;29.30;6.40;;;;;;;26.56;66.87;100241.19;4245359;28;20236;-74
2022/08/24 08:47:49;;;;;;;24.33;6.03;;;;;;;26.54;66.77;100241.44;4224618;28;20322;-73
2022/08/24 08:50:44;;;;;;;23.47;6.50;;;;;;;26.14;68.18;100242.56;4226895;28;21592;-74
2022/08/24 08:53:31;;;;;;;28.77;6.47;;;;;;;26.72;65.70;100240.28;4198104;28;20260;-73
2022/08/24 08:56:04;;;;;;;22.37;5.77;;;;;;;26.98;64.96;100240.53;4211333;28;20299;-76
2022/08/24 08:59:00;;;;;;;34.43;6.33;;;;;;;27.32;63.66;100252.91;4245422;28;20597;-72
2022/08/24 09:01:32;;;;;;;27.47;5.80;;;;;;;27.55;62.47;100256.31;4222564;28;21689;-73
2022/08/24 09:04:30;;;;;;;31.37;6.43;;;;;;;26.95;65.54;100242.69;4262625;28;20241;-74
2022/08/24 09:07:22;;;;;;;27.97;7.00;;;;;;;27.07;65.75;100248.00;4234255;28;20676;-76
2022/08/24 09:10:16;;;;;;;23.10;5.87;;;;;;;27.00;66.63;100238.38;4218232;28;21647;-74
2022/08/24 09:13:04;;;;;;;34.80;7.40;;;;;;;26.69;66.71;100243.50;4212900;28;20288;-73
2022/08/24 09:15:43;;;;;;;34.03;6.50;;;;;;;26.28;69.56;100246.53;4227136;28;20239;-76
2022/08/24 09:18:30;;;;;;;30.83;5.90;;;;;;;26.75;67.48;100242.47;4226436;28;22119;-75
2022/08/24 09:21:27;;;;;;;31.93;7.00;;;;;;;26.58;69.03;100247.22;4246493;28;20297;-76
2022/08/24 09:24:24;;;;;;;31.40;6.93;;;;;;;26.48;68.61;100247.88;4210289;28;20231;-72
2022/08/24 09:27:12;;;;;;;30.60;7.73;;;;;;;26.53;68.77;100245.22;4201217;28;20650;-74
2022/08/24 09:29:48;;;;;;;28.23;6.83;;;;;;;26.47;71.38;100241.59;4223903;28;20232;-72
2022/08/24 09:32:20;;;;;;;26.17;6.17;;;;;;;26.70;69.20;100236.97;4274042;28;20236;-74
2022/08/24 09:35:00;;;;;;;40.93;6.30;;;;;;;26.85;69.05;100237.09;4230470;28;23326;-75
2022/08/24 09:37:55;;;;;;;23.93;5.73;;;;;;;27.30;67.06;100248.75;4196519;28;20240;-74
2022/08/24 09:40:36;;;;;;;23.60;6.80;;;;;;;26.92;69.05;100245.91;4213533;28;20563;-75
2022/08/24 09:43:06;;;;;;;25.33;8.00;;;;;;;27.04;69.40;100244.94;4231868;28;20242;-73
2022/08/24 09:45:41;;;;;;;34.57;8.27;;;;;;;27.14;68.52;100239.59;4234336;28;20237;-74
2022/08/24 09:48:25;;;;;;;27.10;7.10;;;;;;;26.83;69.59;100244.75;4227679;28;20233;-74
2022/08/24 09:51:13;;;;;;;29.70;6.10;;;;;;;27.31;67.70;100245.75;4233475;28;20496;-72
2022/08/24 09:53:59;;;;;;;28.30;6.80;;;;;;;26.95;68.90;100248.16;4234728;28;23043;-74
2022/08/24 09:56:37;;;;;;;18.90;6.07;;;;;;;27.11;68.35;100256.47;4241761;28;20673;-72
2022/08/24 09:59:35;;;;;;;22.23;6.03;;;;;;;27.34;68.13;100258.91;4222331;28;20423;-74
2022/08/24 10:02:40;;;;;;;23.17;5.70;;;;;;;27.70;65.77;100263.84;4234987;28;26161;-74
2022/08/24 10:05:39;;;;;;;27.80;5.93;;;;;;;27.67;65.72;100256.97;4224130;28;20303;-72
2022/08/24 10:08:47;;;;;;;23.53;6.10;;;;;;;27.13;69.11;100251.59;4249175;28;21151;-74
2022/08/24 10:11:39;;;;;;;22.07;5.90;;;;;;;27.39;68.63;100258.13;4209215;28;21020;-74
2022/08/24 10:14:31;;;;;;;23.03;5.90;;;;;;;27.09;68.59;100253.16;4240164;28;20237;-74
2022/08/24 10:17:13;;;;;;;22.40;6.30;;;;;;;26.59;72.07;100249.66;4241957;28;20240;-73
2022/08/24 10:20:03;;;;;;;23.83;5.80;;;;;;;27.06;69.31;100256.44;4220747;28;20232;-72
2022/08/24 10:22:58;;;;;;;17.13;5.40;;;;;;;27.04;68.82;100255.88;4223439;28;21628;-74
2022/08/24 10:25:47;;;;;;;27.10;6.93;;;;;;;27.13;67.66;100257.03;4240692;28;21131;-71
2022/08/24 10:28:46;;;;;;;19.47;5.90;;;;;;;26.82;68.04;100256.75;4268960;28;20435;-73
2022/08/24 10:31:40;;;;;;;29.13;6.90;;;;;;;26.64;69.12;100243.44;4236276;28;21887;-67
2022/08/24 10:34:29;;;;;;;30.80;6.53;;;;;;;26.75;68.14;100247.94;4250581;28;22262;-73
2022/08/24 10:37:09;;;;;;;31.53;6.30;;;;;;;26.98;67.36;100240.53;4252081;28;20759;-75
2022/08/24 10:40:12;;;;;;;30.33;7.07;;;;;;;27.01;68.25;100240.00;4214434;28;21996;-73
2022/08/24 10:46:29;;;;;;;35.10;7.40;;;;;;;27.31;66.31;100245.75;4249886;28;21151;-70
2022/08/24 10:48:59;;;;;;;33.23;7.37;;;;;;;27.36;64.47;100254.00;4216670;28;21485;-72
2022/08/24 10:51:49;;;;;;;36.93;7.40;;;;;;;27.36;65.60;100251.25;4249563;28;20341;-72
2022/08/24 10:54:18;;;;;;;33.70;7.70;;;;;;;27.31;67.90;100251.22;4218748;28;20281;-72
2022/08/24 10:56:44;;;;;;;27.93;6.60;;;;;;;27.42;66.23;100248.56;4238040;28;21085;-71
2022/08/24 10:59:30;;;;;;;36.53;7.37;;;;;;;27.57;65.19;100249.50;4241451;28;20244;-69
2022/08/24 11:02:27;;;;;;;37.53;7.53;;;;;;;27.58;65.38;100251.19;4217150;28;20239;-70
2022/08/24 11:04:56;;;;;;;40.00;8.47;;;;;;;27.38;66.28;100244.72;4277477;28;20249;-69
2022/08/24 11:07:23;;;;;;;44.27;7.63;;;;;;;27.35;66.29;100241.44;4208642;28;20307;-69
2022/08/24 11:09:55;;;;;;;40.90;7.20;;;;;;;27.59;65.82;100249.25;4206748;28;20288;-71
2022/08/24 11:12:31;;;;;;;32.83;7.03;;;;;;;27.96;62.78;100251.16;4210623;28;21098;-69
2022/08/24 11:15:01;;;;;;;48.63;7.90;;;;;;;27.68;64.29;100250.41;4208037;28;20264;-70
2022/08/24 11:17:30;;;;;;;44.27;7.40;;;;;;;27.58;64.04;100251.19;4211248;28;20415;-71
2022/08/24 11:19:58;;;;;;;43.93;7.67;;;;;;;27.83;64.69;100246.13;4235533;28;20247;-72
2022/08/24 11:22:39;;;;;;;38.47;7.27;;;;;;;27.53;64.29;100239.38;4235003;28;20229;-74
2022/08/24 11:25:13;;;;;;;43.80;7.40;;;;;;;27.52;66.72;100243.19;4207575;28;20390;-73
2022/08/24 11:27:44;;;;;;;41.83;8.37;;;;;;;27.57;64.17;100237.75;4236541;28;20240;-73
2022/08/24 11:30:16;;;;;;;52.67;8.27;;;;;;;27.33;64.75;100234.59;4233357;28;20236;-72
2022/08/24 11:32:50;;;;;;;45.50;7.73;;;;;;;27.51;64.00;100238.78;4234721;28;20700;-75
2022/08/24 11:35:25;;;;;;;53.77;8.10;;;;;;;27.39;62.90;100238.16;4210545;28;21104;-75
2022/08/24 11:38:15;;;;;;;48.00;7.97;;;;;;;27.55;64.78;100234.47;4221945;28;20308;-70
2022/08/24 11:40:46;;;;;;;53.13;8.37;;;;;;;27.95;64.03;100239.38;4217159;28;23511;-69
2022/08/24 11:43:46;;;;;;;47.50;7.10;;;;;;;27.89;63.08;100245.13;4201461;28;25304;-71
2022/08/24 11:46:30;;;;;;;54.07;8.50;;;;;;;27.93;65.10;100251.69;4217741;28;21980;-73